createdAt,value
2022-09-21T00:01:23.995Z,10.77
2022-09-21T00:03:59.349Z,13.45
2022-09-21T00:06:28.160Z,14.57
2022-09-21T00:08:56.884Z,11.50
2022-09-21T00:11:29.293Z,11.57
2022-09-21T00:13:59.757Z,12.25
2022-09-21T00:16:27.261Z,17.85
2022-09-21T00:18:54.287Z,16.63
2022-09-21T00:21:21.946Z,11.18
2022-09-21T00:23:49.301Z,13.82
2022-09-21T00:26:21.872Z,14.83
2022-09-21T00:28:57.484Z,13.23
2022-09-21T00:31:25.483Z,12.02
2022-09-21T00:33:53.092Z,11.35
2022-09-21T00:36:23.025Z,12.45
2022-09-21T00:38:52.164Z,9.45
2022-09-21T00:41:20.074Z,11.45
2022-09-21T00:44:07.066Z,11.60
2022-09-21T00:46:35.902Z,13.88
2022-09-21T00:49:03.206Z,11.98
2022-09-21T00:51:30.283Z,14.67
2022-09-21T00:54:05.351Z,12.13
2022-09-21T00:56:32.274Z,15.90
2022-09-21T00:58:59.228Z,15.50
2022-09-21T01:01:26.299Z,15.45
2022-09-21T01:03:57.390Z,16.95
2022-09-21T01:06:26.088Z,15.13
2022-09-21T01:08:56.172Z,13.23
2022-09-21T01:11:26.044Z,14.38
2022-09-21T01:14:20.625Z,16.70
2022-09-21T01:17:02.618Z,17.25
2022-09-21T01:20:13.338Z,13.75
2022-09-21T01:22:58.887Z,14.27
2022-09-21T01:25:56.675Z,14.82
2022-09-21T01:31:06.064Z,15.23
2022-09-21T01:33:39.253Z,15.77
2022-09-21T01:36:20.702Z,18.20
2022-09-21T01:38:50.470Z,17.48
2022-09-21T01:41:23.122Z,19.30
2022-09-21T01:43:55.625Z,17.67
2022-09-21T01:46:25.786Z,15.48
2022-09-21T01:48:56.780Z,18.10
2022-09-21T01:51:28.202Z,15.20
2022-09-21T01:53:59.930Z,13.90
2022-09-21T01:56:40.088Z,17.98
2022-09-21T01:59:14.215Z,13.75
2022-09-21T02:02:07.038Z,15.27
2022-09-21T02:04:38.930Z,14.43
2022-09-21T02:07:07.418Z,17.88
2022-09-21T02:09:38.669Z,14.85
2022-09-21T02:12:05.712Z,13.77
2022-09-21T02:14:34.100Z,13.10
2022-09-21T02:17:09.605Z,11.98
2022-09-21T02:19:54.305Z,14.73
2022-09-21T02:22:32.061Z,15.07
2022-09-21T02:25:07.648Z,14.55
2022-09-21T02:27:39.876Z,17.35
2022-09-21T02:30:15.066Z,12.38
2022-09-21T02:32:59.103Z,14.38
2022-09-21T02:35:37.080Z,13.00
2022-09-21T02:38:09.562Z,11.75
2022-09-21T02:40:43.648Z,12.52
2022-09-21T02:43:17.370Z,15.05
2022-09-21T02:45:54.391Z,14.82
2022-09-21T02:48:29.043Z,12.88
2022-09-21T02:51:02.488Z,14.00
2022-09-21T02:53:33.091Z,17.02
2022-09-21T02:56:06.991Z,14.48
2022-09-21T02:58:50.106Z,13.57
2022-09-21T03:01:18.714Z,12.75
2022-09-21T03:03:45.468Z,15.18
2022-09-21T03:06:12.194Z,13.95
2022-09-21T03:08:39.062Z,14.75
2022-09-21T03:11:06.075Z,18.88
2022-09-21T03:13:32.995Z,19.48
2022-09-21T03:16:07.378Z,15.95
2022-09-21T03:18:35.058Z,15.50
2022-09-21T03:21:03.257Z,14.43
2022-09-21T03:25:56.983Z,14.60
2022-09-21T03:28:24.072Z,15.13
2022-09-21T03:30:53.114Z,16.80
2022-09-21T03:33:20.529Z,17.02
2022-09-21T03:35:50.311Z,21.10
2022-09-21T03:38:17.763Z,17.38
2022-09-21T03:40:49.024Z,19.13
2022-09-21T03:43:16.782Z,21.10
2022-09-21T03:45:43.763Z,19.33
2022-09-21T03:48:12.090Z,21.40
2022-09-21T03:53:05.947Z,16.50
2022-09-21T03:55:33.273Z,19.02
2022-09-21T03:58:00.555Z,18.83
2022-09-21T04:00:27.953Z,18.80
2022-09-21T04:02:55.148Z,20.27
2022-09-21T04:05:22.275Z,19.33
2022-09-21T04:07:51.274Z,19.80
2022-09-21T04:10:21.345Z,18.23
2022-09-21T04:12:48.295Z,15.50
2022-09-21T04:15:19.523Z,19.80
2022-09-21T04:17:47.328Z,21.10
2022-09-21T04:20:14.088Z,18.20
2022-09-21T04:22:43.520Z,16.45
2022-09-21T04:25:12.137Z,16.92
2022-09-21T04:27:39.136Z,15.40
2022-09-21T04:30:06.689Z,15.73
2022-09-21T04:32:33.353Z,17.35
2022-09-21T04:35:00.078Z,15.02
2022-09-21T04:37:26.992Z,16.73
2022-09-21T04:39:53.727Z,16.77
2022-09-21T04:42:20.534Z,14.75
2022-09-21T04:44:47.223Z,15.95
2022-09-21T04:47:14.544Z,18.30
2022-09-21T04:49:41.258Z,14.43
2022-09-21T04:52:08.122Z,14.27
2022-09-21T04:54:34.874Z,14.38
2022-09-21T04:57:01.648Z,15.63
2022-09-21T04:59:28.398Z,16.33
2022-09-21T05:01:55.087Z,13.15
2022-09-21T05:04:21.830Z,12.50
2022-09-21T05:06:48.545Z,11.82
2022-09-21T05:09:34.913Z,12.00
2022-09-21T05:12:03.013Z,11.48
2022-09-21T05:14:29.714Z,11.10
2022-09-21T05:16:56.431Z,17.58
2022-09-21T05:19:23.593Z,14.55
2022-09-21T05:21:50.780Z,10.60
2022-09-21T05:24:17.537Z,9.82
2022-09-21T05:26:44.285Z,10.63
2022-09-21T05:29:11.306Z,10.73
2022-09-21T05:31:40.877Z,11.38
2022-09-21T05:34:38.979Z,12.40
2022-09-21T05:37:21.336Z,11.38
2022-09-21T05:39:48.307Z,11.90
2022-09-21T05:42:15.247Z,10.88
2022-09-21T05:44:42.805Z,12.05
2022-09-21T05:47:26.439Z,10.32
2022-09-21T05:50:11.745Z,11.02
2022-09-21T05:52:56.137Z,11.13
2022-09-21T05:55:59.006Z,10.25
2022-09-21T05:58:57.301Z,11.90
2022-09-21T06:01:42.072Z,8.70
2022-09-21T06:04:14.959Z,11.20
2022-09-21T06:06:41.744Z,12.75
2022-09-21T06:09:08.934Z,9.65
2022-09-21T06:11:36.414Z,10.93
2022-09-21T06:14:03.807Z,10.02
2022-09-21T06:16:43.504Z,10.30
2022-09-21T06:19:13.990Z,13.55
2022-09-21T06:21:40.771Z,10.65
2022-09-21T06:24:08.100Z,9.13
2022-09-21T06:26:35.513Z,11.40
2022-09-21T06:29:02.228Z,10.90
2022-09-21T06:31:29.565Z,11.32
2022-09-21T06:33:56.403Z,13.87
2022-09-21T06:36:23.642Z,12.68
2022-09-21T06:38:50.360Z,9.65
2022-09-21T06:41:20.988Z,12.30
2022-09-21T06:43:48.261Z,11.45
2022-09-21T06:46:15.157Z,12.48
2022-09-21T06:48:42.086Z,11.73
2022-09-21T06:51:10.828Z,12.10
2022-09-21T06:53:37.516Z,11.38
2022-09-21T06:56:06.676Z,9.38
2022-09-21T06:58:34.687Z,9.52
2022-09-21T07:01:12.752Z,10.18
2022-09-21T07:06:08.841Z,11.00
2022-09-21T07:11:27.533Z,12.15
2022-09-21T07:13:55.120Z,11.35
2022-09-21T07:16:21.969Z,10.50
2022-09-21T07:18:48.992Z,12.98
2022-09-21T07:21:16.730Z,12.90
2022-09-21T07:23:44.046Z,11.40
2022-09-21T07:26:12.892Z,16.30
2022-09-21T07:28:40.228Z,18.02
2022-09-21T07:31:13.998Z,13.60
2022-09-21T07:33:46.486Z,12.65
2022-09-21T07:36:13.335Z,14.43
2022-09-21T07:38:44.178Z,18.77
2022-09-21T07:41:13.058Z,16.30
2022-09-21T07:43:40.559Z,16.45
2022-09-21T07:46:15.081Z,17.83
2022-09-21T07:48:42.530Z,19.55
2022-09-21T07:51:11.701Z,14.23
2022-09-21T07:53:40.997Z,15.95
2022-09-21T07:56:10.237Z,16.67
2022-09-21T07:58:57.038Z,18.55
2022-09-21T08:01:25.332Z,18.95
2022-09-21T08:06:23.099Z,23.00
2022-09-21T08:08:55.027Z,30.05
2022-09-21T08:11:23.737Z,26.00
2022-09-21T08:13:59.147Z,28.52
2022-09-21T08:16:27.074Z,23.25
2022-09-21T08:18:53.851Z,28.35
2022-09-21T08:21:21.008Z,31.50
2022-09-21T08:23:49.202Z,27.23
2022-09-21T08:28:51.693Z,27.75
2022-09-21T08:31:20.984Z,27.75
2022-09-21T08:33:49.826Z,31.48
2022-09-21T08:36:17.515Z,28.40
2022-09-21T08:38:46.887Z,30.83
2022-09-21T08:41:41.384Z,27.88
2022-09-21T08:44:20.060Z,27.13
2022-09-21T08:46:50.978Z,26.52
2022-09-21T08:49:23.120Z,32.38
2022-09-21T08:52:02.864Z,23.25
2022-09-21T08:54:41.121Z,25.70
2022-09-21T08:57:15.574Z,20.52
2022-09-21T08:59:46.727Z,22.30
2022-09-21T09:02:13.744Z,28.98
2022-09-21T09:04:52.619Z,24.10
2022-09-21T09:07:49.059Z,22.85
2022-09-21T09:10:23.806Z,21.98
2022-09-21T09:13:08.253Z,62.42
2022-09-21T09:16:09.344Z,46.20
2022-09-21T09:18:44.878Z,13.68
2022-09-21T09:21:11.721Z,16.33
2022-09-21T09:23:44.123Z,16.73
2022-09-21T09:26:30.292Z,15.25
2022-09-21T09:29:29.028Z,21.90
2022-09-21T09:31:58.589Z,16.58
2022-09-21T09:34:32.322Z,16.20
2022-09-21T09:37:13.997Z,15.93
2022-09-21T09:39:43.086Z,15.75
2022-09-21T09:42:34.484Z,14.48
2022-09-21T09:45:11.804Z,14.70
2022-09-21T09:48:10.397Z,12.45
2022-09-21T09:50:42.565Z,18.52
2022-09-21T09:53:22.567Z,10.65
2022-09-21T09:55:52.191Z,12.82
2022-09-21T09:58:24.264Z,12.82
2022-09-21T10:00:55.473Z,9.73
2022-09-21T10:03:24.594Z,7.65
2022-09-21T10:05:51.989Z,8.77
2022-09-21T10:08:36.867Z,11.50
2022-09-21T10:11:04.327Z,12.98
2022-09-21T10:13:42.751Z,9.35
2022-09-21T10:16:20.525Z,9.20
2022-09-21T10:19:03.253Z,10.32
2022-09-21T10:21:37.029Z,6.15
2022-09-21T10:24:15.592Z,9.48
2022-09-21T10:26:54.435Z,11.52
2022-09-21T10:29:25.194Z,8.85
2022-09-21T10:32:05.351Z,9.65
2022-09-21T10:34:34.579Z,5.72
2022-09-21T10:37:22.633Z,9.20
2022-09-21T10:39:49.370Z,4.82
2022-09-21T10:42:18.758Z,4.78
2022-09-21T10:44:47.900Z,6.70
2022-09-21T10:47:35.457Z,24.42
2022-09-21T10:50:05.616Z,26.30
2022-09-21T10:52:42.840Z,17.80
2022-09-21T10:55:19.041Z,10.15
2022-09-21T10:57:46.775Z,14.77
2022-09-21T11:00:40.683Z,14.77
2022-09-21T11:03:28.505Z,14.68
2022-09-21T11:06:02.519Z,26.45
2022-09-21T11:08:45.122Z,10.07
2022-09-21T11:11:30.646Z,6.53
2022-09-21T11:14:37.349Z,6.78
2022-09-21T11:17:08.610Z,6.43
2022-09-21T11:20:03.938Z,7.97
2022-09-21T11:22:57.435Z,44.38
2022-09-21T11:25:31.261Z,9.57
2022-09-21T11:28:22.240Z,9.98
2022-09-21T11:31:14.893Z,15.88
2022-09-21T11:34:02.073Z,8.10
2022-09-21T11:36:55.416Z,7.53
2022-09-21T11:40:03.543Z,6.53
2022-09-21T11:42:51.036Z,14.13
2022-09-21T11:45:50.638Z,6.53
2022-09-21T11:48:30.788Z,22.23
2022-09-21T11:51:03.787Z,10.48
2022-09-21T11:53:50.144Z,9.00
2022-09-21T11:56:55.140Z,7.13
2022-09-21T11:59:36.447Z,7.25
2022-09-21T12:02:31.511Z,6.18
2022-09-21T12:05:13.972Z,3.38
2022-09-21T12:08:09.201Z,4.10
2022-09-21T12:11:03.989Z,3.65
2022-09-21T12:13:54.833Z,24.38
2022-09-21T12:16:46.432Z,7.85
2022-09-21T12:19:39.790Z,7.57
2022-09-21T12:22:17.651Z,3.08
2022-09-21T12:24:49.227Z,3.78
2022-09-21T12:27:44.561Z,3.50
2022-09-21T12:30:15.147Z,26.02
2022-09-21T12:33:06.524Z,8.30
2022-09-21T12:35:43.882Z,4.65
2022-09-21T12:41:21.449Z,7.82
2022-09-21T12:44:00.547Z,8.27
2022-09-21T12:46:38.007Z,4.10
2022-09-21T12:49:31.550Z,5.43
2022-09-21T12:52:03.610Z,8.68
2022-09-21T12:54:50.476Z,8.23
2022-09-21T12:58:10.998Z,4.47
2022-09-21T13:00:42.602Z,8.32
2022-09-21T13:03:19.366Z,19.90
2022-09-21T13:06:34.422Z,4.90
2022-09-21T13:09:06.185Z,5.32
2022-09-21T13:11:35.567Z,6.03
2022-09-21T13:14:04.752Z,4.55
2022-09-21T13:16:35.244Z,3.80
2022-09-21T13:19:19.206Z,3.92
2022-09-21T13:21:46.128Z,5.38
2022-09-21T13:24:31.038Z,4.22
2022-09-21T13:27:05.017Z,3.75
2022-09-21T13:29:34.836Z,7.68
2022-09-21T13:32:22.829Z,4.85
2022-09-21T13:37:21.040Z,4.60
2022-09-21T13:40:03.384Z,11.48
2022-09-21T13:42:33.679Z,11.48
2022-09-21T13:45:15.327Z,10.55
2022-09-21T13:47:45.687Z,6.90
2022-09-21T13:50:21.522Z,5.53
2022-09-21T13:52:52.289Z,4.65
2022-09-21T13:55:22.107Z,4.50
2022-09-21T13:57:54.338Z,4.90
2022-09-21T14:00:50.539Z,2.88
2022-09-21T14:03:55.829Z,2.85
2022-09-21T14:06:42.931Z,21.33
2022-09-21T14:09:30.084Z,5.27
2022-09-21T14:12:03.802Z,7.32
2022-09-21T14:14:43.265Z,4.85
2022-09-21T14:17:42.826Z,5.20
2022-09-21T14:20:32.014Z,4.60
2022-09-21T14:23:16.378Z,2.83
2022-09-21T14:25:54.478Z,33.13
2022-09-21T14:31:20.777Z,9.77
2022-09-21T14:33:53.518Z,7.00
2022-09-21T14:36:25.609Z,6.45
2022-09-21T14:39:01.718Z,4.53
2022-09-21T14:41:37.597Z,12.27
2022-09-21T14:44:05.289Z,4.25
2022-09-21T14:46:59.597Z,2.67
2022-09-21T14:50:14.335Z,3.95
2022-09-21T14:53:09.370Z,4.30
2022-09-21T14:56:00.703Z,2.70
2022-09-21T14:59:28.849Z,3.42
2022-09-21T15:01:59.353Z,4.07
2022-09-21T15:04:46.171Z,2.72
2022-09-21T15:07:34.251Z,9.43
2022-09-21T15:13:19.177Z,4.40
2022-09-21T15:15:57.835Z,4.15
2022-09-21T15:18:25.794Z,14.27
2022-09-21T15:21:03.446Z,5.00
2022-09-21T15:23:34.830Z,1.75
2022-09-21T15:26:04.241Z,6.40
2022-09-21T15:29:07.820Z,12.25
2022-09-21T15:31:38.684Z,12.57
2022-09-21T15:34:06.764Z,12.90
2022-09-21T15:36:44.232Z,5.38
2022-09-21T15:39:29.073Z,6.13
2022-09-21T15:42:20.171Z,6.38
2022-09-21T15:44:49.022Z,5.40
2022-09-21T15:47:22.441Z,4.88
2022-09-21T15:49:50.873Z,5.68
2022-09-21T15:52:43.123Z,5.30
2022-09-21T15:55:21.532Z,10.63
2022-09-21T15:58:21.381Z,18.33
2022-09-21T16:00:55.948Z,10.43
2022-09-21T16:03:25.960Z,7.82
2022-09-21T16:05:55.426Z,6.15
2022-09-21T16:08:35.866Z,3.17
2022-09-21T16:11:15.805Z,8.32
2022-09-21T16:14:02.887Z,3.35
2022-09-21T16:16:29.773Z,5.60
2022-09-21T16:19:00.046Z,5.25
2022-09-21T16:21:35.161Z,3.58
2022-09-21T16:24:19.520Z,5.38
2022-09-21T16:27:00.882Z,5.53
2022-09-21T16:29:42.984Z,6.55
2022-09-21T16:32:35.926Z,4.30
2022-09-21T16:35:21.989Z,4.43
2022-09-21T16:37:51.795Z,4.05
2022-09-21T16:40:19.355Z,4.82
2022-09-21T16:42:46.587Z,5.88
2022-09-21T16:45:23.988Z,3.65
2022-09-21T16:47:53.265Z,4.35
2022-09-21T16:50:20.305Z,4.07
2022-09-21T16:52:52.392Z,5.78
2022-09-21T16:55:20.027Z,5.30
2022-09-21T16:57:48.202Z,5.32
2022-09-21T17:02:48.372Z,5.22
2022-09-21T17:05:18.018Z,8.18
2022-09-21T17:07:51.225Z,5.82
2022-09-21T17:10:19.461Z,5.88
2022-09-21T17:15:13.585Z,3.17
2022-09-21T17:17:42.556Z,3.72
2022-09-21T17:20:20.515Z,5.10
2022-09-21T17:22:47.246Z,4.10
2022-09-21T17:25:14.065Z,5.72
2022-09-21T17:27:42.340Z,3.42
2022-09-21T17:32:42.897Z,4.28
2022-09-21T17:35:32.849Z,6.38
2022-09-21T17:38:00.803Z,5.00
2022-09-21T17:40:29.787Z,4.25
2022-09-21T17:43:16.011Z,4.28
2022-09-21T17:45:50.417Z,4.40
2022-09-21T17:48:22.236Z,4.50
2022-09-21T17:50:49.954Z,4.57
2022-09-21T17:53:37.451Z,4.15
2022-09-21T17:56:25.748Z,4.93
2022-09-21T17:59:05.291Z,6.38
2022-09-21T18:01:36.690Z,3.88
2022-09-21T18:04:05.061Z,3.40
2022-09-21T18:06:34.047Z,5.00
2022-09-21T18:09:01.696Z,4.95
2022-09-21T18:11:46.164Z,7.05
2022-09-21T18:14:27.848Z,6.00
2022-09-21T18:17:20.705Z,4.93
2022-09-21T18:20:29.781Z,5.60
2022-09-21T18:23:32.933Z,4.65
2022-09-21T18:26:00.500Z,5.65
2022-09-21T18:28:47.690Z,4.82
2022-09-21T18:31:46.758Z,7.45
2022-09-21T18:34:46.955Z,4.85
2022-09-21T18:37:32.621Z,7.35
2022-09-21T18:40:11.864Z,4.43
2022-09-21T18:42:53.072Z,6.20
2022-09-21T18:45:29.803Z,5.57
2022-09-21T18:48:15.897Z,6.10
2022-09-21T18:51:12.336Z,5.07
2022-09-21T18:53:46.976Z,7.18
2022-09-21T18:56:14.609Z,4.15
2022-09-21T18:58:43.056Z,4.78
2022-09-21T19:01:14.669Z,4.32
2022-09-21T19:04:02.343Z,4.53
2022-09-21T19:06:42.624Z,6.18
2022-09-21T19:09:37.497Z,4.78
2022-09-21T19:12:28.502Z,4.93
2022-09-21T19:15:42.309Z,7.15
2022-09-21T19:18:45.532Z,6.28
2022-09-21T19:21:48.723Z,5.28
2022-09-21T19:24:30.506Z,4.53
2022-09-21T19:27:26.406Z,4.40
2022-09-21T19:30:13.127Z,6.18
2022-09-21T19:32:51.772Z,5.43
2022-09-21T19:35:22.090Z,6.35
2022-09-21T19:37:50.310Z,6.57
2022-09-21T19:43:12.955Z,6.68
2022-09-21T19:46:32.388Z,7.18
2022-09-21T19:49:21.186Z,6.65
2022-09-21T19:51:50.238Z,7.15
2022-09-21T19:54:43.378Z,7.75
2022-09-21T19:57:35.019Z,11.45
2022-09-21T20:00:02.598Z,7.95
2022-09-21T20:02:32.619Z,7.90
2022-09-21T20:05:13.475Z,8.77
2022-09-21T20:07:44.388Z,8.23
2022-09-21T20:10:25.062Z,8.65
2022-09-21T20:13:24.023Z,8.70
2022-09-21T20:16:03.816Z,9.60
2022-09-21T20:18:30.554Z,9.73
2022-09-21T20:20:57.706Z,11.07
2022-09-21T20:23:24.742Z,9.90
2022-09-21T20:26:00.692Z,9.55
2022-09-21T20:28:27.771Z,13.02
2022-09-21T20:30:54.758Z,10.88
2022-09-21T20:33:26.910Z,12.55
2022-09-21T20:35:55.735Z,13.35
2022-09-21T20:38:23.181Z,11.38
2022-09-21T20:40:50.192Z,11.73
2022-09-21T20:43:17.003Z,13.25
2022-09-21T20:45:47.717Z,12.35
2022-09-21T20:48:14.728Z,14.23
2022-09-21T20:50:46.381Z,11.52
2022-09-21T20:53:13.674Z,13.85
2022-09-21T20:55:41.681Z,18.20
2022-09-21T20:58:12.903Z,11.20
2022-09-21T21:00:40.179Z,11.63
2022-09-21T21:03:06.935Z,11.80
2022-09-21T21:05:33.683Z,12.00
2022-09-21T21:08:00.450Z,9.85
2022-09-21T21:10:27.389Z,11.77
2022-09-21T21:12:54.151Z,11.50
2022-09-21T21:15:20.892Z,10.77
2022-09-21T21:17:48.725Z,12.98
2022-09-21T21:20:16.703Z,13.38
2022-09-21T21:22:44.808Z,10.65
2022-09-21T21:25:11.774Z,10.45
2022-09-21T21:27:39.109Z,9.77
2022-09-21T21:30:07.200Z,12.77
2022-09-21T21:32:34.250Z,13.52
2022-09-21T21:35:01.671Z,10.48
2022-09-21T21:37:29.171Z,10.67
2022-09-21T21:39:56.962Z,9.48
2022-09-21T21:42:29.480Z,9.93
2022-09-21T21:44:56.510Z,13.90
2022-09-21T21:47:40.150Z,13.07
2022-09-21T21:50:10.646Z,11.63
2022-09-21T21:52:37.751Z,10.57
2022-09-21T21:55:05.616Z,9.55
2022-09-21T21:57:33.280Z,11.70
2022-09-21T22:00:00.079Z,11.82
2022-09-21T22:02:27.233Z,11.60
2022-09-21T22:04:57.081Z,12.07
2022-09-21T22:07:23.794Z,11.20
2022-09-21T22:09:50.500Z,10.50
2022-09-21T22:12:17.598Z,11.38
2022-09-21T22:14:46.349Z,8.32
2022-09-21T22:17:13.451Z,10.45
2022-09-21T22:19:40.341Z,10.35
2022-09-21T22:22:07.067Z,10.75
2022-09-21T22:24:33.765Z,8.68
2022-09-21T22:27:00.619Z,10.48
2022-09-21T22:29:27.298Z,9.20
2022-09-21T22:31:55.269Z,14.18
2022-09-21T22:34:22.098Z,10.82
2022-09-21T22:36:50.222Z,8.43
2022-09-21T22:39:16.958Z,12.15
2022-09-21T22:41:44.362Z,9.40
2022-09-21T22:44:11.682Z,9.90
2022-09-21T22:46:38.979Z,8.57
2022-09-21T22:49:06.051Z,8.53
2022-09-21T22:51:33.561Z,10.50
2022-09-21T22:54:01.499Z,9.13
2022-09-21T22:56:30.878Z,8.57
2022-09-21T22:58:59.352Z,8.73
2022-09-21T23:01:44.711Z,10.48
2022-09-21T23:04:13.552Z,8.35
2022-09-21T23:06:43.286Z,9.13
2022-09-21T23:09:18.571Z,8.35
2022-09-21T23:11:48.277Z,8.27
2022-09-21T23:14:16.581Z,9.05
2022-09-21T23:19:15.534Z,8.35
2022-09-21T23:21:45.214Z,7.57
2022-09-21T23:24:12.962Z,8.98
2022-09-21T23:26:39.801Z,10.18
2022-09-21T23:29:12.480Z,7.75
2022-09-21T23:31:44.443Z,7.20
2022-09-21T23:34:12.732Z,8.88
2022-09-21T23:36:40.699Z,10.13
2022-09-21T23:39:10.543Z,8.07
2022-09-21T23:41:37.543Z,8.57
2022-09-21T23:44:04.827Z,7.72
2022-09-21T23:46:34.722Z,6.45
2022-09-21T23:49:02.215Z,8.98
2022-09-21T23:51:32.320Z,7.00
2022-09-21T23:53:59.728Z,7.72
2022-09-21T23:56:27.236Z,8.65
2022-09-21T23:58:54.612Z,10.00
